Air Quality Table

TIMESTAMP NO2 O3 PM2.5 TEMP HUM AIRPRES WS WD NO
2021-05-12 11:00 -1.58 ug/m3 94.76 ug/m3 22.6 ug/m3 20.76 C 58.32 % 1,003.24 mbar 2.44 m/s 334.72 Deg -2.14 ug/m3
2021-05-12 10:00 -2.1 ug/m3 91.01 ug/m3 20.9 ug/m3 20.43 C 57.1 % 1,003.00 mbar 2.52 m/s 256.36 Deg -9.38 ug/m3
2021-05-12 09:00 -2.1 ug/m3 87.7 ug/m3 20.13 ug/m3 19.77 C 57.95 % 1,002.93 mbar 3.49 m/s 180.17 Deg -9.38 ug/m3
2021-05-12 08:00 -2.1 ug/m3 83.58 ug/m3 16.33 ug/m3 18.86 C 62.46 % 1,003.03 mbar 2.71 m/s 259.52 Deg -9.38 ug/m3
2021-05-12 07:00 -2.09 ug/m3 82.63 ug/m3 10 ug/m3 17.75 C 70.3 % 1,002.87 mbar 2.39 m/s 346.95 Deg -9.42 ug/m3
2021-05-12 06:00 6.06 ug/m3 80.13 ug/m3 7.7 ug/m3 16.78 C 79.89 % 1,002.63 mbar 1.99 m/s 173.77 Deg -0.21 ug/m3
2021-05-12 05:00 1.26 ug/m3 84.05 ug/m3 9.45 ug/m3 16.74 C 86.64 % 1,002.15 mbar 2.27 m/s 340.62 Deg -0.03 ug/m3
2021-05-12 04:00 2.98 ug/m3 82 ug/m3 10.1 ug/m3 17.18 C 86.17 % 1,002.00 mbar 2.14 m/s 329.15 Deg 0 ug/m3
2021-05-12 03:00 4.32 ug/m3 80.49 ug/m3 11.6 ug/m3 17.36 C 83.66 % 1,001.79 mbar 1.81 m/s 337.33 Deg -0.1 ug/m3
2021-05-12 02:00 2.33 ug/m3 83.37 ug/m3 13.68 ug/m3 17.23 C 88.41 % 1,002.05 mbar 1.26 m/s 336.5 Deg -0.09 ug/m3
2021-05-12 01:00 3.54 ug/m3 87.85 ug/m3 9.55 ug/m3 17.66 C 89.34 % 1,002.36 mbar 1.53 m/s 258.3 Deg -0.04 ug/m3
2021-05-12 00:00 5.07 ug/m3 88.43 ug/m3 11.75 ug/m3 18 C 86.05 % 1,002.76 mbar 1.73 m/s 176.97 Deg -0.02 ug/m3
2021-05-11 23:00 4.15 ug/m3 83.51 ug/m3 10.83 ug/m3 18.03 C 83.3 % 1,003.09 mbar 1.76 m/s 347.03 Deg -0.04 ug/m3
2021-05-11 22:00 7.5 ug/m3 67.48 ug/m3 10.55 ug/m3 18.26 C 81.53 % 1,003.18 mbar 1.08 m/s 344.61 Deg -0.15 ug/m3
2021-05-11 21:00 9.69 ug/m3 72.61 ug/m3 10.25 ug/m3 18.89 C 80.43 % 1,002.72 mbar 0.61 m/s 329.3 Deg -0.1 ug/m3
2021-05-11 20:00 10.56 ug/m3 79.5 ug/m3 7.63 ug/m3 19.42 C 77.64 % 1,002.10 mbar 0.66 m/s 183.97 Deg 0.03 ug/m3
2021-05-11 19:00 13.32 ug/m3 84.25 ug/m3 10.33 ug/m3 20.82 C 60.18 % 1,001.68 mbar 1.06 m/s 229.96 Deg 0.6 ug/m3
2021-05-11 18:00 10.42 ug/m3 90.08 ug/m3 14.2 ug/m3 21.44 C 53.29 % 1,000.82 mbar 1.78 m/s 161.58 Deg 1.02 ug/m3
2021-05-11 17:00 11.65 ug/m3 88.81 ug/m3 12.55 ug/m3 22.11 C 53.02 % 1,000.86 mbar 2.56 m/s 158.87 Deg 2.14 ug/m3
2021-05-11 16:00 19.74 ug/m3 86.46 ug/m3 20.93 ug/m3 22.59 C 47.23 % 1,001.18 mbar 3.12 m/s 166.65 Deg 5.33 ug/m3
2021-05-11 15:00 19.75 ug/m3 87.97 ug/m3 24.6 ug/m3 22.6 C 48 % 1,001.37 mbar 3.79 m/s 165.05 Deg 5.14 ug/m3
2021-05-11 14:00 21.28 ug/m3 86.2 ug/m3 33.43 ug/m3 22.94 C 47.48 % 1,001.44 mbar 4.21 m/s 165.97 Deg 6.74 ug/m3

It is to be noted that the data is provisional and subject to quality assurance procedures. For validated data kindly refer your request to contact.air@era.org.mt